Terminal Aerodrome Forecast
Issued by NWS Boston, MA

Home | Current Version | Previous Version | Text Only | Print | Product List | Glossary Off
Versions: 1 2 3 4 5 6 7 8 9 10 11 12 13 14 15 16 17 18 19 20 21 22 23 24 25 26 27 28 29 30 31 32 33 34 35 36 37 38 39 40 41 42 43 44 45 46 47 48 49 50
430 FTUS41 KBOX 251514 AAA TAFBDL TAF AMD KBDL 251514Z 2515/2618 01007KT P6SM -RA OVC025 FM252100 36004KT 2SM -RA BR BKN020 FM252300 VRB03KT P6SM BKN035 FM260600 02004KT P6SM SCT250 FM261100 05005KT P6SM VCSH BKN030=

USA.gov is the U.S. government's official web portal to all federal, state and local government web resources and services.